Time;durP1;ratioP1;P1;durP2;ratioP2;P2;SDS_P1;SDS_P2;PMS_P1;PMS_P2;Temp;Humidity;BMP_temperature;BMP_pressure;BME280_temperature;BME280_humidity;BME280_pressure;Samples;Min_cycle;Max_cycle;Signal;HPM_P1;HPM_P2
2021/03/30 00:00:16;;;;;;;7.72;2.63;;;21.70;80.80;;;;;;5073319;28;20104;-57
2021/03/30 00:02:43;;;;;;;5.53;2.20;;;21.70;81.00;;;;;;5073699;28;20020;-59
2021/03/30 00:05:11;;;;;;;8.02;2.65;;;21.80;80.90;;;;;;5073447;28;20024;-64
2021/03/30 00:07:38;;;;;;;9.05;3.22;;;21.80;80.20;;;;;;5073163;28;20111;-57
2021/03/30 00:10:08;;;;;;;8.27;3.10;;;21.80;80.80;;;;;;5071864;28;20029;-57
2021/03/30 00:12:35;;;;;;;6.50;2.58;;;21.80;80.30;;;;;;5072958;28;20109;-58
2021/03/30 00:15:04;;;;;;;7.68;2.78;;;21.90;80.30;;;;;;5073296;28;20035;-59
2021/03/30 00:17:31;;;;;;;8.98;2.58;;;21.90;78.30;;;;;;5055089;28;20025;-64
2021/03/30 00:19:59;;;;;;;7.55;3.25;;;21.90;79.00;;;;;;5072716;28;20037;-65
2021/03/30 00:22:26;;;;;;;9.65;2.33;;;22.00;79.10;;;;;;5072976;28;20467;-60
2021/03/30 00:24:55;;;;;;;10.10;3.05;;;22.00;78.40;;;;;;5073020;28;20395;-57
2021/03/30 00:27:22;;;;;;;5.88;2.28;;;22.10;77.60;;;;;;5072471;28;20044;-65
2021/03/30 00:29:50;;;;;;;5.90;2.63;;;22.20;78.90;;;;;;5073823;28;20107;-60
2021/03/30 00:32:17;;;;;;;5.40;3.08;;;22.20;77.40;;;;;;5072633;28;20130;-62
2021/03/30 00:34:45;;;;;;;8.82;2.22;;;22.30;78.90;;;;;;5072543;28;20029;-56
2021/03/30 00:37:12;;;;;;;8.02;2.88;;;22.30;76.50;;;;;;5072866;28;20039;-56
2021/03/30 00:39:39;;;;;;;5.78;1.98;;;22.40;74.90;;;;;;5072306;28;20415;-55
2021/03/30 00:42:07;;;;;;;4.68;2.05;;;22.50;77.30;;;;;;5054305;28;20032;-59
2021/03/30 00:44:35;;;;;;;6.20;2.38;;;22.50;77.60;;;;;;5063340;28;20490;-55
2021/03/30 00:47:03;;;;;;;6.53;2.45;;;22.60;73.30;;;;;;5072545;28;20028;-59
2021/03/30 00:49:33;;;;;;;11.98;3.30;;;22.70;76.30;;;;;;5072230;28;20385;-56
2021/03/30 00:52:01;;;;;;;7.05;2.22;;;22.80;75.30;;;;;;5071151;28;20021;-56
2021/03/30 00:54:28;;;;;;;10.40;2.70;;;22.90;77.20;;;;;;5072278;28;20024;-57
2021/03/30 00:56:55;;;;;;;10.30;3.78;;;22.90;75.90;;;;;;5071414;28;20036;-54
2021/03/30 00:59:23;;;;;;;5.88;2.33;;;23.00;71.90;;;;;;5069743;28;20472;-53
2021/03/30 01:01:51;;;;;;;8.35;2.70;;;23.10;70.80;;;;;;5072213;28;20369;-56
2021/03/30 01:04:18;;;;;;;7.43;2.50;;;23.10;75.30;;;;;;5072185;28;20158;-56
2021/03/30 01:06:48;;;;;;;5.88;2.38;;;23.10;72.80;;;;;;5081503;28;20130;-58
2021/03/30 01:09:33;;;;;;;6.65;2.28;;;23.20;74.70;;;;;;5091874;28;20024;-55
2021/03/30 01:12:22;;;;;;;9.80;2.78;;;23.30;73.40;;;;;;5084904;28;20490;-56
2021/03/30 01:15:03;;;;;;;11.48;3.10;;;23.30;70.60;;;;;;5071513;28;20107;-62
2021/03/30 01:18:04;;;;;;;11.02;2.85;;;23.40;70.90;;;;;;5071145;28;20422;-59
2021/03/30 01:21:02;;;;;;;6.35;2.58;;;23.50;72.40;;;;;;5071372;28;20128;-55
2021/03/30 01:23:38;;;;;;;9.05;2.83;;;23.60;72.00;;;;;;5060854;28;20036;-63
2021/03/30 01:26:43;;;;;;;9.20;2.92;;;23.70;72.70;;;;;;5069695;28;20595;-58
2021/03/30 01:29:23;;;;;;;7.10;2.58;;;23.70;71.60;;;;;;5046742;28;20533;-57
2021/03/30 01:32:00;;;;;;;6.82;2.47;;;23.80;72.90;;;;;;5069973;28;20032;-51
2021/03/30 01:34:29;;;;;;;6.53;2.03;;;23.90;69.00;;;;;;5068468;28;20028;-58
2021/03/30 01:36:59;;;;;;;6.70;2.05;;;23.90;69.70;;;;;;5068636;28;20474;-56
2021/03/30 01:39:27;;;;;;;5.80;2.50;;;23.90;72.20;;;;;;5060114;28;20040;-64
2021/03/30 01:41:56;;;;;;;7.05;2.45;;;23.90;70.80;;;;;;5069028;28;20032;-63
2021/03/30 01:44:26;;;;;;;8.57;2.58;;;23.90;70.70;;;;;;5051336;28;20032;-52
2021/03/30 01:46:55;;;;;;;5.25;2.40;;;23.90;69.40;;;;;;5069804;28;20395;-52
2021/03/30 01:49:25;;;;;;;7.90;2.05;;;24.00;72.30;;;;;;5065924;28;20029;-57
2021/03/30 01:51:53;;;;;;;3.35;1.52;;;24.00;71.10;;;;;;5068969;28;20078;-57
2021/03/30 01:54:23;;;;;;;7.47;2.83;;;24.10;69.90;;;;;;5069986;28;20085;-53
2021/03/30 01:56:56;;;;;;;6.60;2.60;;;24.10;71.70;;;;;;5070607;28;20020;-57
2021/03/30 01:59:25;;;;;;;7.65;2.83;;;24.20;70.50;;;;;;5048378;28;20041;-62
2021/03/30 02:01:53;;;;;;;9.38;2.42;;;24.20;70.60;;;;;;5060245;28;20028;-54
2021/03/30 02:04:23;;;;;;;6.55;2.50;;;24.30;69.50;;;;;;5069341;28;20083;-56
2021/03/30 02:06:53;;;;;;;5.53;2.22;;;24.30;70.90;;;;;;5069661;28;20479;-61
2021/03/30 02:09:26;;;;;;;7.50;2.38;;;24.40;68.70;;;;;;5065604;28;20032;-54
2021/03/30 02:11:56;;;;;;;4.85;2.13;;;24.50;71.20;;;;;;5069114;28;20451;-56
2021/03/30 02:14:24;;;;;;;4.88;1.92;;;24.40;69.10;;;;;;5069325;28;20033;-59
2021/03/30 02:17:03;;;;;;;5.95;2.03;;;24.50;70.10;;;;;;5052197;28;20031;-57
2021/03/30 02:20:10;;;;;;;4.80;2.17;;;24.50;70.20;;;;;;5064916;28;20108;-54
2021/03/30 02:22:51;;;;;;;7.40;2.35;;;24.60;69.70;;;;;;5067789;28;20024;-58
2021/03/30 02:25:23;;;;;;;6.45;2.58;;;24.70;68.90;;;;;;5068849;28;20076;-57
2021/03/30 02:27:54;;;;;;;7.50;2.30;;;24.60;68.00;;;;;;5065872;28;20028;-56
2021/03/30 02:30:24;;;;;;;7.97;1.92;;;24.70;68.70;;;;;;5065037;28;20434;-63
2021/03/30 02:32:53;;;;;;;7.63;2.55;;;24.70;69.30;;;;;;5069967;28;20104;-57
2021/03/30 02:35:24;;;;;;;6.32;2.15;;;24.70;66.80;;;;;;5073668;28;20475;-58
2021/03/30 02:37:52;;;;;;;7.75;2.58;;;24.80;68.30;;;;;;5074413;28;20032;-62
2021/03/30 02:40:22;;;;;;;6.50;2.22;;;24.80;67.50;;;;;;5074337;28;20040;-56
2021/03/30 02:42:53;;;;;;;5.97;2.50;;;24.80;68.00;;;;;;5065526;28;20027;-60
2021/03/30 02:45:30;;;;;;;4.30;2.28;;;24.80;68.40;;;;;;5069247;28;20503;-57
2021/03/30 02:48:01;;;;;;;3.78;1.95;;;24.70;67.80;;;;;;5056534;28;20020;-57
2021/03/30 02:50:29;;;;;;;7.20;2.47;;;24.70;67.60;;;;;;5072836;28;20024;-61
2021/03/30 02:52:58;;;;;;;4.53;1.90;;;24.70;69.00;;;;;;5071161;28;20029;-58
2021/03/30 02:55:26;;;;;;;6.10;1.98;;;24.70;69.30;;;;;;5067881;28;20043;-59
2021/03/30 02:57:53;;;;;;;5.13;2.08;;;24.70;70.50;;;;;;5072809;28;20126;-55
2021/03/30 03:00:21;;;;;;;6.38;2.00;;;24.60;70.80;;;;;;5072662;28;20429;-58
2021/03/30 03:02:51;;;;;;;5.65;2.38;;;24.60;70.30;;;;;;5071403;28;20031;-53
2021/03/30 03:05:19;;;;;;;7.63;2.70;;;24.60;69.80;;;;;;5068422;28;20037;-62
2021/03/30 03:07:46;;;;;;;5.53;2.25;;;24.50;68.50;;;;;;5072706;28;20040;-64
2021/03/30 03:10:15;;;;;;;5.80;2.58;;;24.60;68.10;;;;;;5072331;28;20024;-53
2021/03/30 03:12:44;;;;;;;8.48;2.20;;;24.60;69.40;;;;;;5071513;28;20059;-50
2021/03/30 03:15:15;;;;;;;7.43;2.60;;;24.60;67.20;;;;;;5068721;28;20051;-59
2021/03/30 03:17:43;;;;;;;4.10;1.75;;;24.50;69.20;;;;;;5072089;28;20024;-57
2021/03/30 03:20:11;;;;;;;4.45;1.70;;;24.50;69.10;;;;;;5072157;28;20457;-53
2021/03/30 03:22:39;;;;;;;3.95;1.80;;;24.50;69.20;;;;;;5071160;28;20017;-52
2021/03/30 03:25:08;;;;;;;6.57;2.35;;;24.50;68.40;;;;;;5067442;28;20036;-51
2021/03/30 03:27:36;;;;;;;4.18;1.90;;;24.50;68.20;;;;;;5054784;28;20375;-52
2021/03/30 03:30:11;;;;;;;4.60;2.08;;;24.50;70.00;;;;;;5069956;28;20024;-51
2021/03/30 03:32:39;;;;;;;9.35;2.53;;;24.50;72.20;;;;;;5073345;28;20029;-59
2021/03/30 03:35:11;;;;;;;3.72;1.70;;;24.50;69.00;;;;;;5073188;28;20115;-58
2021/03/30 03:37:45;;;;;;;;;;;24.50;67.00;;;;;;5074254;28;20099;-61
2021/03/30 03:40:14;;;;;;;5.40;2.08;;;24.60;68.90;;;;;;5073190;28;19913;-62
2021/03/30 03:42:42;;;;;;;8.93;2.15;;;24.60;70.80;;;;;;5073523;28;20451;-57
2021/03/30 03:45:11;;;;;;;6.93;2.05;;;24.60;69.00;;;;;;5071581;28;20025;-60
2021/03/30 03:47:39;;;;;;;5.38;2.13;;;24.70;70.30;;;;;;5073961;28;20559;-59
2021/03/30 03:50:10;;;;;;;5.43;1.98;;;24.80;67.80;;;;;;5073880;28;20043;-65
2021/03/30 03:52:48;;;;;;;5.25;1.90;;;24.80;68.70;;;;;;5073368;28;20052;-62
2021/03/30 03:55:17;;;;;;;4.00;1.90;;;24.80;70.20;;;;;;5072948;28;20383;-58
2021/03/30 03:57:51;;;;;;;3.35;1.70;;;24.80;68.60;;;;;;5072871;28;20021;-61
2021/03/30 04:00:21;;;;;;;8.55;1.85;;;24.90;67.80;;;;;;5072830;28;20032;-61
2021/03/30 04:03:21;;;;;;;12.70;2.30;;;24.90;67.50;;;;;;5073129;28;20387;-59
2021/03/30 04:05:58;;;;;;;4.93;2.50;;;24.90;66.70;;;;;;5073119;28;20028;-63
2021/03/30 04:08:27;;;;;;;10.02;2.35;;;24.90;68.90;;;;;;5055118;28;20033;-62
2021/03/30 04:10:57;;;;;;;7.35;2.38;;;24.90;68.00;;;;;;5073522;28;20109;-54
2021/03/30 04:13:29;;;;;;;7.07;2.25;;;24.90;67.90;;;;;;5072875;28;20025;-59
2021/03/30 04:16:06;;;;;;;5.63;2.00;;;24.90;69.50;;;;;;5055402;28;20032;-61
2021/03/30 04:18:35;;;;;;;7.45;2.30;;;24.90;68.50;;;;;;5072683;28;20104;-56
2021/03/30 04:21:04;;;;;;;4.68;2.13;;;24.80;68.30;;;;;;5073460;28;20059;-58
2021/03/30 04:23:33;;;;;;;5.25;1.85;;;24.80;69.20;;;;;;5071743;28;20031;-62
2021/03/30 04:26:01;;;;;;;10.80;2.17;;;24.80;68.80;;;;;;5073052;28;20115;-65
2021/03/30 04:28:28;;;;;;;6.22;2.10;;;24.80;67.00;;;;;;5072996;28;20029;-57
2021/03/30 04:30:56;;;;;;;3.92;1.90;;;24.80;70.00;;;;;;5073335;28;20020;-55
2021/03/30 04:33:23;;;;;;;4.20;2.30;;;24.80;66.80;;;;;;5063590;28;20032;-55
2021/03/30 04:35:51;;;;;;;6.78;2.20;;;24.80;67.60;;;;;;5068889;28;20360;-53
2021/03/30 04:38:18;;;;;;;4.10;1.80;;;24.80;65.40;;;;;;5068362;28;20136;-59
2021/03/30 04:40:50;;;;;;;6.40;1.98;;;24.80;68.40;;;;;;5071153;28;20033;-59
2021/03/30 04:43:18;;;;;;;5.07;1.80;;;24.80;68.30;;;;;;5070513;28;20506;-56
2021/03/30 04:45:45;;;;;;;5.38;1.65;;;24.90;70.70;;;;;;5071546;28;20036;-52
2021/03/30 04:48:13;;;;;;;5.32;2.28;;;24.90;66.20;;;;;;5068716;28;20025;-56
2021/03/30 04:50:44;;;;;;;6.68;1.92;;;24.90;68.50;;;;;;5069363;28;20025;-62
2021/03/30 04:53:12;;;;;;;5.00;2.00;;;24.90;69.80;;;;;;5049967;28;20031;-52
2021/03/30 04:55:40;;;;;;;6.15;2.00;;;25.00;69.30;;;;;;5070989;28;20032;-52
2021/03/30 04:58:07;;;;;;;5.25;2.13;;;25.00;70.10;;;;;;5066538;28;20090;-53
2021/03/30 05:00:34;;;;;;;7.35;2.13;;;24.90;69.80;;;;;;5071133;28;20498;-69
2021/03/30 05:03:02;;;;;;;4.07;1.88;;;24.90;67.10;;;;;;5069647;28;20111;-58
2021/03/30 05:05:29;;;;;;;7.38;2.03;;;25.00;68.20;;;;;;5070844;28;20020;-58
2021/03/30 05:08:00;;;;;;;4.38;1.70;;;25.00;68.40;;;;;;5067633;28;20486;-56
2021/03/30 05:10:27;;;;;;;7.53;2.38;;;25.00;67.80;;;;;;5051195;28;20062;-68
2021/03/30 05:12:55;;;;;;;4.88;1.80;;;25.00;67.40;;;;;;5069975;28;20032;-58
2021/03/30 05:15:22;;;;;;;5.30;1.70;;;25.00;68.50;;;;;;5070731;28;20042;-58
2021/03/30 05:17:50;;;;;;;5.13;2.25;;;25.00;68.90;;;;;;5069061;28;20427;-53
2021/03/30 05:20:17;;;;;;;4.57;1.80;;;25.10;70.40;;;;;;5067333;28;20036;-49
2021/03/30 05:22:44;;;;;;;3.90;1.85;;;25.00;70.50;;;;;;5069639;28;20081;-48
2021/03/30 05:25:16;;;;;;;5.05;1.90;;;25.00;69.10;;;;;;5070694;28;20052;-71
2021/03/30 05:27:44;;;;;;;2.30;1.30;;;25.00;71.20;;;;;;5070846;28;20028;-68
2021/03/30 05:30:13;;;;;;;4.55;1.73;;;25.10;70.20;;;;;;5065611;28;20039;-64
2021/03/30 05:32:42;;;;;;;6.13;1.80;;;25.10;70.00;;;;;;5070289;28;20036;-55
2021/03/30 05:35:12;;;;;;;4.28;1.88;;;25.10;68.60;;;;;;5052274;28;20021;-60
2021/03/30 05:37:40;;;;;;;8.80;2.00;;;25.00;68.10;;;;;;5052369;28;20031;-57
2021/03/30 05:40:10;;;;;;;5.43;1.55;;;25.10;69.80;;;;;;5065181;28;20036;-55
2021/03/30 05:42:39;;;;;;;4.55;1.92;;;25.10;69.50;;;;;;5069924;28;20021;-63
2021/03/30 05:45:09;;;;;;;5.95;2.03;;;25.10;69.40;;;;;;5069982;28;20080;-59
2021/03/30 05:47:37;;;;;;;7.57;2.05;;;25.10;69.60;;;;;;5071468;28;20028;-63
2021/03/30 05:50:11;;;;;;;6.47;2.60;;;25.10;68.20;;;;;;5071698;28;20074;-62
2021/03/30 05:52:45;;;;;;;5.05;2.33;;;25.00;68.20;;;;;;5071781;28;20021;-61
2021/03/30 05:55:29;;;;;;;8.68;3.00;;;24.90;69.40;;;;;;5067479;28;20037;-59
2021/03/30 05:57:58;;;;;;;8.98;3.08;;;24.20;62.30;;;;;;5071278;28;20101;-56
2021/03/30 06:00:33;;;;;;;17.20;3.45;;;23.90;63.90;;;;;;5070620;28;20112;-59
2021/03/30 06:03:16;;;;;;;10.70;4.13;;;23.80;60.20;;;;;;5071306;28;20071;-55
2021/03/30 06:05:44;;;;;;;12.20;3.35;;;23.70;60.60;;;;;;5070845;28;20028;-56
2021/03/30 06:08:11;;;;;;;12.82;3.90;;;23.60;65.70;;;;;;5072043;28;20451;-60
2021/03/30 06:10:39;;;;;;;15.13;5.15;;;23.60;61.80;;;;;;5056853;28;20025;-57
2021/03/30 06:13:06;;;;;;;9.45;2.83;;;23.60;62.90;;;;;;5074502;28;20025;-56
2021/03/30 06:15:35;;;;;;;11.00;3.30;;;23.50;63.50;;;;;;5074848;28;20067;-60
2021/03/30 06:18:18;;;;;;;13.50;3.83;;;23.70;61.60;;;;;;5074890;28;20481;-55
2021/03/30 06:20:46;;;;;;;12.98;2.97;;;23.50;61.40;;;;;;5074736;28;20040;-61
2021/03/30 06:23:13;;;;;;;12.32;3.65;;;23.50;64.90;;;;;;5073386;28;20095;-62
2021/03/30 06:25:49;;;;;;;12.05;3.90;;;23.60;61.40;;;;;;5073040;28;20041;-60
2021/03/30 06:28:28;;;;;;;9.85;3.80;;;23.40;70.00;;;;;;5074700;28;20474;-60
2021/03/30 06:31:04;;;;;;;10.88;4.43;;;23.40;64.30;;;;;;5074696;28;20025;-59
2021/03/30 06:33:34;;;;;;;14.02;4.47;;;23.40;61.30;;;;;;5074428;28;20459;-60
2021/03/30 06:36:24;;;;;;;14.85;7.97;;;23.50;65.10;;;;;;5074325;28;20029;-59
2021/03/30 06:39:01;;;;;;;14.70;7.32;;;23.80;66.30;;;;;;5074805;28;20027;-60
2021/03/30 06:46:56;;;;;;;8.93;3.65;;;24.00;64.40;;;;;;5068949;28;20095;-54
2021/03/30 06:49:24;;;;;;;10.30;3.40;;;24.00;61.10;;;;;;5072801;28;20051;-56
2021/03/30 06:51:52;;;;;;;11.15;3.17;;;23.90;58.70;;;;;;5072624;28;20023;-60
2021/03/30 06:54:20;;;;;;;10.60;3.47;;;23.90;61.10;;;;;;5071329;28;20031;-55
2021/03/30 06:56:59;;;;;;;12.50;3.53;;;23.90;60.20;;;;;;5067797;28;20127;-57
2021/03/30 06:59:26;;;;;;;12.25;2.97;;;23.90;56.90;;;;;;5072195;28;20060;-52
2021/03/30 07:01:56;;;;;;;13.50;3.25;;;23.90;58.30;;;;;;5071666;28;20031;-56
2021/03/30 07:04:24;;;;;;;7.22;2.75;;;23.90;57.00;;;;;;5071624;28;20124;-56
2021/03/30 07:06:55;;;;;;;8.95;2.67;;;23.90;59.30;;;;;;5067202;28;20067;-58
2021/03/30 07:09:23;;;;;;;9.45;2.92;;;23.90;58.90;;;;;;5072057;28;20107;-49
2021/03/30 07:11:51;;;;;;;8.38;3.15;;;23.90;59.10;;;;;;5071911;28;20114;-60
2021/03/30 07:14:18;;;;;;;23.52;3.97;;;23.80;59.40;;;;;;5068887;28;20429;-53
2021/03/30 07:16:56;;;;;;;8.30;2.50;;;23.90;58.60;;;;;;5067144;28;20455;-54
2021/03/30 07:19:29;;;;;;;13.00;2.88;;;23.90;60.10;;;;;;5069822;28;20045;-53
2021/03/30 07:22:10;;;;;;;11.18;2.65;;;23.80;58.40;;;;;;5072315;28;20085;-59
2021/03/30 07:25:04;;;;;;;9.25;2.58;;;23.60;58.60;;;;;;5070924;28;20020;-56
2021/03/30 07:27:54;;;;;;;11.07;3.42;;;23.60;59.40;;;;;;5074101;28;20033;-57
2021/03/30 07:30:24;;;;;;;10.52;3.08;;;23.60;60.00;;;;;;5073867;28;20017;-53
2021/03/30 07:33:07;;;;;;;7.35;2.80;;;23.60;61.20;;;;;;5073788;28;20060;-59
2021/03/30 07:35:38;;;;;;;11.85;3.30;;;23.50;60.90;;;;;;5073190;28;20033;-57
2021/03/30 07:38:13;;;;;;;13.53;4.13;;;23.40;61.00;;;;;;5072852;28;20024;-59
2021/03/30 07:40:42;;;;;;;13.93;3.70;;;23.30;60.70;;;;;;5073473;28;20292;-55
2021/03/30 07:43:13;;;;;;;11.43;3.25;;;23.30;61.60;;;;;;5055183;28;20029;-55
2021/03/30 07:45:45;;;;;;;11.02;2.72;;;23.30;61.00;;;;;;5073344;28;20028;-60
2021/03/30 07:48:18;;;;;;;13.23;2.35;;;23.30;60.40;;;;;;5073044;28;20108;-60
2021/03/30 07:51:10;;;;;;;11.48;3.03;;;23.20;60.60;;;;;;5073320;28;20443;-58
2021/03/30 07:53:54;;;;;;;7.32;2.83;;;23.20;64.10;;;;;;5072475;28;20068;-61
2021/03/30 07:56:28;;;;;;;10.10;2.50;;;23.10;62.10;;;;;;5072524;28;20024;-54
2021/03/30 07:58:58;;;;;;;15.35;2.67;;;23.10;62.20;;;;;;5063459;28;20054;-64
2021/03/30 08:01:29;;;;;;;11.65;2.47;;;23.10;62.30;;;;;;5072544;28;20399;-64
2021/03/30 08:03:58;;;;;;;8.52;2.50;;;23.20;62.70;;;;;;5071855;28;20031;-53
2021/03/30 08:06:35;;;;;;;13.27;2.88;;;23.20;63.10;;;;;;5071424;28;20525;-56
2021/03/30 08:09:09;;;;;;;9.30;2.70;;;23.20;63.40;;;;;;5065182;28;20052;-58
2021/03/30 08:11:48;;;;;;;8.00;2.42;;;23.20;63.90;;;;;;5069777;28;20697;-62
2021/03/30 08:14:22;;;;;;;9.00;2.20;;;23.20;64.50;;;;;;5071078;28;20081;-51
2021/03/30 08:16:52;;;;;;;10.60;2.92;;;23.10;64.80;;;;;;5072115;28;20418;-55
2021/03/30 08:19:21;;;;;;;9.98;2.97;;;23.10;65.10;;;;;;5066687;28;20028;-57
2021/03/30 08:22:04;;;;;;;10.00;3.13;;;23.10;64.00;;;;;;5071143;28;20105;-54
2021/03/30 08:24:47;;;;;;;8.27;2.25;;;23.10;65.20;;;;;;5071018;28;20085;-58
2021/03/30 08:27:36;;;;;;;8.32;2.78;;;23.10;65.20;;;;;;5071240;28;20032;-58
2021/03/30 08:30:14;;;;;;;9.00;2.05;;;23.10;65.90;;;;;;5065009;28;20039;-61
2021/03/30 08:32:47;;;;;;;11.77;3.33;;;23.10;65.70;;;;;;5070793;28;20083;-57
2021/03/30 08:35:30;;;;;;;7.97;2.15;;;23.10;65.90;;;;;;5070707;28;20020;-51
2021/03/30 08:37:59;;;;;;;9.77;3.08;;;23.10;65.90;;;;;;5051636;28;20036;-52
2021/03/30 08:40:35;;;;;;;10.07;2.85;;;23.00;66.30;;;;;;5065627;28;20040;-52
2021/03/30 08:43:16;;;;;;;8.00;2.80;;;23.00;66.30;;;;;;5071376;28;20024;-56
2021/03/30 08:46:16;;;;;;;6.40;2.30;;;23.00;66.40;;;;;;5071662;28;20063;-53
2021/03/30 08:49:05;;;;;;;10.23;2.78;;;23.00;66.30;;;;;;5067231;28;20032;-57
2021/03/30 08:51:35;;;;;;;11.80;3.10;;;23.00;66.90;;;;;;5069589;28;20028;-62
2021/03/30 08:54:13;;;;;;;9.90;2.63;;;23.00;67.30;;;;;;5071551;28;20024;-58
2021/03/30 08:56:43;;;;;;;14.10;2.92;;;23.00;67.50;;;;;;5071847;28;20035;-57
2021/03/30 08:59:12;;;;;;;7.30;2.50;;;22.90;67.40;;;;;;5065891;28;20356;-57
2021/03/30 09:01:46;;;;;;;14.30;2.65;;;22.90;68.20;;;;;;5071774;28;20391;-59
2021/03/30 09:04:15;;;;;;;10.80;3.50;;;22.90;68.40;;;;;;5070189;28;20503;-60
2021/03/30 09:06:55;;;;;;;9.73;2.83;;;22.90;68.70;;;;;;5071064;28;20538;-63
2021/03/30 09:09:33;;;;;;;8.95;2.85;;;22.80;69.10;;;;;;5065255;28;20029;-57
2021/03/30 09:12:20;;;;;;;12.43;3.15;;;22.80;69.30;;;;;;5070676;28;20029;-64
2021/03/30 09:14:58;;;;;;;11.90;3.22;;;22.80;69.10;;;;;;5071004;28;20020;-62
2021/03/30 09:17:28;;;;;;;10.25;2.88;;;22.70;69.60;;;;;;5053308;28;20044;-60
2021/03/30 09:19:56;;;;;;;10.38;2.33;;;22.80;70.00;;;;;;5066038;28;20118;-60
2021/03/30 09:22:36;;;;;;;10.95;3.25;;;22.70;70.50;;;;;;5036498;28;20487;-56
2021/03/30 09:27:43;;;;;;;9.90;2.53;;;22.70;70.80;;;;;;5071429;28;20084;-65
2021/03/30 09:30:19;;;;;;;7.93;2.42;;;22.70;71.10;;;;;;5065986;28;20081;-63
2021/03/30 09:32:49;;;;;;;7.50;3.42;;;22.70;71.00;;;;;;5052540;28;20071;-58
2021/03/30 09:35:20;;;;;;;9.20;3.17;;;22.60;71.50;;;;;;5052077;28;20028;-54
2021/03/30 09:38:01;;;;;;;15.52;3.67;;;22.60;72.00;;;;;;5070461;28;20506;-64
2021/03/30 09:40:41;;;;;;;12.43;4.03;;;22.70;74.50;;;;;;5064399;28;20040;-58
2021/03/30 09:43:10;;;;;;;14.00;4.38;;;22.70;73.80;;;;;;5070246;28;20021;-53
2021/03/30 09:45:39;;;;;;;12.95;4.63;;;22.70;74.10;;;;;;5070659;28;20403;-63
2021/03/30 09:48:11;;;;;;;17.38;5.55;;;22.70;73.80;;;;;;5070953;28;20078;-54
2021/03/30 09:50:52;;;;;;;20.42;5.78;;;22.70;73.60;;;;;;5067424;28;20028;-63
2021/03/30 09:53:20;;;;;;;17.35;5.85;;;22.70;73.40;;;;;;5052607;28;20017;-60
2021/03/30 09:55:48;;;;;;;19.25;4.97;;;22.70;73.30;;;;;;5070980;28;20076;-60
2021/03/30 09:58:24;;;;;;;18.27;5.10;;;22.70;73.30;;;;;;5068245;28;20033;-58
2021/03/30 10:00:56;;;;;;;18.85;5.13;;;22.60;73.70;;;;;;5068006;28;20040;-58
2021/03/30 10:03:25;;;;;;;16.73;4.78;;;22.60;73.60;;;;;;5071021;28;20033;-64
2021/03/30 10:05:52;;;;;;;14.55;4.70;;;22.60;73.80;;;;;;5070430;28;20029;-59
2021/03/30 10:08:26;;;;;;;19.23;5.10;;;22.60;72.90;;;;;;5067622;28;20063;-55
2021/03/30 10:10:56;;;;;;;14.98;5.03;;;22.60;73.80;;;;;;5051324;28;20027;-60
2021/03/30 10:13:32;;;;;;;20.75;4.85;;;22.60;74.20;;;;;;5068866;28;20032;-62
2021/03/30 10:16:02;;;;;;;12.10;4.35;;;22.60;74.20;;;;;;5069929;28;20028;-53
2021/03/30 10:18:30;;;;;;;17.10;4.28;;;22.60;74.20;;;;;;5066897;28;20118;-57
2021/03/30 10:21:18;;;;;;;12.90;4.75;;;22.60;74.20;;;;;;5069800;28;20029;-52
2021/03/30 10:23:52;;;;;;;16.55;5.63;;;22.60;74.00;;;;;;5070095;28;20103;-53
2021/03/30 10:26:29;;;;;;;16.73;4.60;;;22.60;74.00;;;;;;5070278;28;20021;-58
2021/03/30 10:29:05;;;;;;;20.92;5.35;;;22.50;74.10;;;;;;5063861;28;20372;-49
2021/03/30 10:31:49;;;;;;;14.52;4.95;;;22.60;74.40;;;;;;5069486;28;20052;-57
2021/03/30 10:34:27;;;;;;;16.05;5.45;;;22.50;74.30;;;;;;5069615;28;20426;-58
2021/03/30 10:36:57;;;;;;;14.90;4.32;;;22.50;74.40;;;;;;5070430;28;20103;-53
2021/03/30 10:39:31;;;;;;;13.05;4.78;;;22.50;74.40;;;;;;5063953;28;20463;-55
2021/03/30 10:42:09;;;;;;;20.15;5.82;;;22.50;74.40;;;;;;5050335;28;20036;-64
2021/03/30 10:44:47;;;;;;;13.48;4.90;;;22.50;74.70;;;;;;5069828;28;20511;-53
2021/03/30 10:47:48;;;;;;;17.17;4.97;;;22.40;74.70;;;;;;5069815;28;20017;-53
2021/03/30 10:50:19;;;;;;;13.90;4.05;;;22.50;74.80;;;;;;5027113;28;20101;-49
2021/03/30 10:52:47;;;;;;;15.20;4.38;;;22.40;74.90;;;;;;5070385;28;20024;-53
2021/03/30 10:55:16;;;;;;;12.55;4.05;;;22.40;75.60;;;;;;5072547;28;20033;-52
2021/03/30 10:57:48;;;;;;;21.00;5.63;;;22.40;74.90;;;;;;5056151;28;21334;-61
2021/03/30 11:00:19;;;;;;;22.77;5.55;;;22.40;75.00;;;;;;5047719;28;20420;-59
2021/03/30 11:02:46;;;;;;;15.55;5.18;;;22.40;75.80;;;;;;5073961;28;20498;-54
2021/03/30 11:05:16;;;;;;;10.52;4.07;;;22.30;75.00;;;;;;5074010;28;20032;-56
2021/03/30 11:07:53;;;;;;;15.45;4.55;;;22.40;75.20;;;;;;5074053;28;20398;-58
2021/03/30 11:10:34;;;;;;;13.18;4.45;;;22.30;75.40;;;;;;5065144;28;20029;-53
2021/03/30 11:13:01;;;;;;;13.15;4.07;;;22.30;75.30;;;;;;5054309;28;20055;-53
2021/03/30 11:15:31;;;;;;;15.82;4.97;;;22.30;75.40;;;;;;5070936;28;20055;-55
2021/03/30 11:17:59;;;;;;;15.02;4.35;;;22.30;75.50;;;;;;5069993;28;20042;-52
2021/03/30 11:20:26;;;;;;;11.70;3.83;;;22.30;75.60;;;;;;5063200;28;20399;-49
2021/03/30 11:22:55;;;;;;;12.98;3.95;;;22.30;75.60;;;;;;5072725;28;20620;-59
2021/03/30 11:25:24;;;;;;;12.07;4.78;;;22.30;75.60;;;;;;5073210;28;20028;-54
2021/03/30 11:27:54;;;;;;;13.10;4.20;;;22.30;75.50;;;;;;5073043;28;20099;-59
2021/03/30 11:30:27;;;;;;;14.73;4.47;;;22.30;75.50;;;;;;5063909;28;20448;-55
2021/03/30 11:33:07;;;;;;;18.15;4.65;;;22.30;76.10;;;;;;5073970;28;20016;-52
2021/03/30 11:38:34;;;;;;;17.25;4.55;;;22.30;75.50;;;;;;5042631;28;20059;-58
2021/03/30 11:41:02;;;;;;;13.50;4.30;;;22.30;75.50;;;;;;5069936;28;20067;-56
2021/03/30 11:43:32;;;;;;;13.20;5.03;;;22.40;75.70;;;;;;5073301;28;20025;-59
2021/03/30 11:46:00;;;;;;;12.65;4.22;;;22.30;75.40;;;;;;5072685;28;20470;-59
2021/03/30 11:48:27;;;;;;;11.40;4.45;;;22.30;75.60;;;;;;5067761;28;20124;-59
2021/03/30 11:50:54;;;;;;;13.95;4.30;;;22.30;75.50;;;;;;5067100;28;20497;-57
2021/03/30 11:53:22;;;;;;;10.45;3.38;;;22.30;75.60;;;;;;5072000;28;20379;-58
2021/03/30 11:55:49;;;;;;;11.15;3.53;;;22.30;75.60;;;;;;5072793;28;20467;-56
2021/03/30 11:58:16;;;;;;;13.10;4.57;;;22.30;75.60;;;;;;5069521;28;20032;-55
2021/03/30 12:00:44;;;;;;;10.18;3.53;;;22.30;75.60;;;;;;5064909;28;20047;-58
2021/03/30 12:03:11;;;;;;;9.48;3.70;;;22.30;75.60;;;;;;5071942;28;20024;-56
2021/03/30 12:05:39;;;;;;;11.63;3.95;;;22.30;75.70;;;;;;5071260;28;20025;-53
2021/03/30 12:08:06;;;;;;;13.68;4.97;;;22.30;75.70;;;;;;5071603;28;20051;-55
2021/03/30 12:10:34;;;;;;;10.70;3.83;;;22.30;75.60;;;;;;5062273;28;20107;-53
2021/03/30 12:13:01;;;;;;;8.57;3.30;;;22.30;75.70;;;;;;5073448;28;20066;-60
2021/03/30 12:15:28;;;;;;;8.45;3.08;;;22.30;75.80;;;;;;5073481;28;20036;-64
2021/03/30 12:17:55;;;;;;;7.57;3.42;;;22.30;75.70;;;;;;5073631;28;20035;-59
2021/03/30 12:20:23;;;;;;;10.73;3.92;;;22.30;75.60;;;;;;5073351;28;20067;-63
2021/03/30 12:22:50;;;;;;;9.25;3.55;;;22.30;75.60;;;;;;5073110;28;20013;-57
2021/03/30 12:25:18;;;;;;;13.27;4.45;;;22.20;75.60;;;;;;5073086;28;20029;-62
2021/03/30 12:27:45;;;;;;;10.07;3.20;;;22.20;75.60;;;;;;5073419;28;20077;-57
2021/03/30 12:30:13;;;;;;;8.90;3.40;;;22.20;75.70;;;;;;5073470;28;20693;-64
2021/03/30 12:32:40;;;;;;;9.82;3.55;;;22.20;75.90;;;;;;5073276;28;20036;-63
2021/03/30 12:35:08;;;;;;;12.77;3.95;;;22.20;75.90;;;;;;5072909;28;20029;-63
2021/03/30 12:37:36;;;;;;;13.32;3.45;;;22.20;75.90;;;;;;5072927;28;20089;-61
2021/03/30 12:40:04;;;;;;;11.02;3.72;;;22.10;76.00;;;;;;5072523;28;20467;-59
2021/03/30 12:42:31;;;;;;;9.52;3.67;;;22.10;76.00;;;;;;5072991;28;20055;-60
2021/03/30 12:44:59;;;;;;;9.10;3.03;;;22.10;76.10;;;;;;5065060;28;20448;-63
2021/03/30 12:47:26;;;;;;;11.35;4.05;;;22.10;76.30;;;;;;5069890;28;20036;-56
2021/03/30 12:49:54;;;;;;;9.07;3.80;;;22.10;76.50;;;;;;5070993;28;20103;-64
2021/03/30 12:52:25;;;;;;;9.38;3.45;;;22.00;76.60;;;;;;5068577;28;20020;-59
2021/03/30 12:54:55;;;;;;;13.57;3.55;;;22.00;76.60;;;;;;5054434;28;20052;-61
2021/03/30 12:57:22;;;;;;;7.97;3.10;;;22.00;76.90;;;;;;5071447;28;20033;-61
2021/03/30 12:59:49;;;;;;;13.50;4.50;;;22.00;77.10;;;;;;5063813;28;20446;-61
2021/03/30 13:02:17;;;;;;;12.05;3.42;;;22.00;77.20;;;;;;5070038;28;20479;-67
2021/03/30 13:04:44;;;;;;;10.82;4.45;;;22.00;77.30;;;;;;5068149;28;20371;-58
2021/03/30 13:07:12;;;;;;;11.93;3.63;;;21.90;77.40;;;;;;5069639;28;20084;-56
2021/03/30 13:09:41;;;;;;;9.80;3.42;;;21.90;77.50;;;;;;5070774;28;20024;-55
2021/03/30 13:12:08;;;;;;;8.90;3.83;;;21.90;77.60;;;;;;5070585;28;20029;-53
2021/03/30 13:14:36;;;;;;;10.10;3.30;;;21.90;77.70;;;;;;5065864;28;20025;-53
2021/03/30 13:17:04;;;;;;;14.57;4.15;;;21.90;77.80;;;;;;5069917;28;20028;-56